createdAt,value
2017-10-25T00:02:10.950Z,1.53
2017-10-25T00:04:39.225Z,5.17
2017-10-25T00:07:07.556Z,3.00
2017-10-25T00:09:35.068Z,1.87
2017-10-25T00:12:02.632Z,1.63
2017-10-25T00:14:30.813Z,2.87
2017-10-25T00:16:58.319Z,3.27
2017-10-25T00:19:25.845Z,4.33
2017-10-25T00:21:54.136Z,2.10
2017-10-25T00:24:23.528Z,1.83
2017-10-25T00:26:51.064Z,1.50
2017-10-25T00:29:19.342Z,3.10
2017-10-25T00:31:46.853Z,1.30
2017-10-25T00:34:14.375Z,1.30
2017-10-25T00:36:41.874Z,2.20
2017-10-25T00:39:09.384Z,1.30
2017-10-25T00:41:36.875Z,2.50
2017-10-25T00:44:04.384Z,1.47
2017-10-25T00:46:31.874Z,2.20
2017-10-25T00:48:59.379Z,1.60
2017-10-25T00:51:27.639Z,2.17
2017-10-25T00:53:55.148Z,2.30
2017-10-25T00:56:22.642Z,1.10
2017-10-25T00:58:50.171Z,2.63
2017-10-25T01:01:17.666Z,3.77
2017-10-25T01:03:45.167Z,2.57
2017-10-25T01:06:12.663Z,2.03
2017-10-25T01:08:40.942Z,1.00
2017-10-25T01:11:08.459Z,1.10
2017-10-25T01:13:35.984Z,1.10
2017-10-25T01:16:03.476Z,2.60
2017-10-25T01:18:30.982Z,2.87
2017-10-25T01:20:58.480Z,1.70
2017-10-25T01:23:25.975Z,1.70
2017-10-25T01:25:53.487Z,2.13
2017-10-25T01:28:22.046Z,1.90
2017-10-25T01:30:49.559Z,3.73
2017-10-25T01:33:17.073Z,2.40
2017-10-25T01:35:44.588Z,1.70
2017-10-25T01:38:12.083Z,3.33
2017-10-25T01:40:39.613Z,1.63
2017-10-25T01:43:07.876Z,2.03
2017-10-25T01:45:35.386Z,2.87
2017-10-25T01:48:03.647Z,2.67
2017-10-25T01:50:31.159Z,2.70
2017-10-25T01:52:58.658Z,3.90
2017-10-25T01:55:26.172Z,1.50
2017-10-25T01:57:53.672Z,1.47
2017-10-25T02:00:21.184Z,2.10
2017-10-25T02:02:48.684Z,1.20
2017-10-25T02:05:16.194Z,2.10
2017-10-25T02:07:43.692Z,2.07
2017-10-25T02:10:11.199Z,2.10
2017-10-25T02:12:39.459Z,1.80
2017-10-25T02:15:07.739Z,2.90
2017-10-25T02:17:36.003Z,1.53
2017-10-25T02:20:03.519Z,1.93
2017-10-25T02:22:31.020Z,1.53
2017-10-25T02:24:58.517Z,2.60
2017-10-25T02:27:26.023Z,1.30
2017-10-25T02:29:53.510Z,5.40
2017-10-25T02:32:21.792Z,1.97
2017-10-25T02:34:50.043Z,1.87
2017-10-25T02:37:17.546Z,4.00
2017-10-25T02:39:45.047Z,2.17
2017-10-25T02:42:12.560Z,2.23
2017-10-25T02:44:40.065Z,2.13
2017-10-25T02:47:07.577Z,1.40
2017-10-25T02:49:35.075Z,2.17
2017-10-25T02:52:02.599Z,2.67
2017-10-25T02:54:30.099Z,2.13
2017-10-25T02:56:57.608Z,2.47
2017-10-25T02:59:25.120Z,1.73
2017-10-25T03:01:52.624Z,8.43
2017-10-25T03:04:20.114Z,2.00
2017-10-25T03:06:47.622Z,3.23
2017-10-25T03:09:15.140Z,3.40
2017-10-25T03:11:42.652Z,2.07
2017-10-25T03:14:10.152Z,2.97
2017-10-25T03:16:37.667Z,2.40
2017-10-25T03:19:05.164Z,5.07
2017-10-25T03:21:32.683Z,3.10
2017-10-25T03:24:00.191Z,3.73
2017-10-25T03:26:27.682Z,1.70
2017-10-25T03:28:55.955Z,1.83
2017-10-25T03:31:24.216Z,2.10
2017-10-25T03:33:52.502Z,1.27
2017-10-25T03:36:20.765Z,1.23
2017-10-25T03:38:49.052Z,1.33
2017-10-25T03:41:17.310Z,1.40
2017-10-25T03:43:44.822Z,1.30
2017-10-25T03:46:12.312Z,1.10
2017-10-25T03:48:39.830Z,3.60
2017-10-25T03:51:07.326Z,1.13
2017-10-25T03:53:34.839Z,1.80
2017-10-25T03:56:02.339Z,1.93
2017-10-25T03:58:29.850Z,1.00
2017-10-25T04:00:57.352Z,2.07
2017-10-25T04:03:24.862Z,1.23
2017-10-25T04:05:52.355Z,0.93
2017-10-25T04:08:19.867Z,1.33
2017-10-25T04:10:48.122Z,1.57
2017-10-25T04:13:15.642Z,1.43
2017-10-25T04:15:43.130Z,2.07
2017-10-25T04:18:10.644Z,1.23
2017-10-25T04:20:38.144Z,2.43
2017-10-25T04:23:05.651Z,1.60
2017-10-25T04:25:33.150Z,1.40
2017-10-25T04:28:00.684Z,1.70
2017-10-25T04:30:28.174Z,1.60
2017-10-25T04:32:55.662Z,0.87
2017-10-25T04:35:23.960Z,2.73
2017-10-25T04:37:51.459Z,1.90
2017-10-25T04:40:18.979Z,1.63
2017-10-25T04:42:46.470Z,6.03
2017-10-25T04:45:13.988Z,1.93
2017-10-25T04:47:41.487Z,2.03
2017-10-25T04:50:08.999Z,1.20
2017-10-25T04:52:36.494Z,2.07
2017-10-25T04:55:04.004Z,1.30
2017-10-25T04:57:32.272Z,1.40
2017-10-25T05:00:00.568Z,1.23
2017-10-25T05:02:28.064Z,2.40
2017-10-25T05:04:55.566Z,1.30
2017-10-25T05:07:23.833Z,1.50
2017-10-25T05:09:52.106Z,1.90
2017-10-25T05:12:19.597Z,4.63
2017-10-25T05:14:47.115Z,2.40
2017-10-25T05:17:14.611Z,2.40
2017-10-25T05:19:42.119Z,4.13
2017-10-25T05:22:09.620Z,1.47
2017-10-25T05:24:37.145Z,2.20
2017-10-25T05:27:04.648Z,1.27
2017-10-25T05:29:32.176Z,2.50
2017-10-25T05:32:01.451Z,4.20
2017-10-25T05:34:29.327Z,3.10
2017-10-25T05:36:56.844Z,1.57
2017-10-25T05:39:24.343Z,2.10
2017-10-25T05:41:51.850Z,2.70
2017-10-25T05:44:19.346Z,1.77
2017-10-25T05:46:46.855Z,2.50
2017-10-25T05:49:14.346Z,0.93
2017-10-25T05:54:06.512Z,1.63
2017-10-25T05:56:34.132Z,2.30
2017-10-25T05:59:01.627Z,2.60
2017-10-25T06:01:29.239Z,1.80
2017-10-25T06:03:57.951Z,1.87
2017-10-25T06:06:26.045Z,4.43
2017-10-25T06:08:53.806Z,2.93
2017-10-25T06:11:22.118Z,2.10
2017-10-25T06:13:50.410Z,2.60
2017-10-25T06:16:17.924Z,1.73
2017-10-25T06:18:45.418Z,2.93
2017-10-25T06:21:13.694Z,2.30
2017-10-25T06:23:41.196Z,2.83
2017-10-25T06:26:08.710Z,2.33
2017-10-25T06:28:36.983Z,1.40
2017-10-25T06:31:05.269Z,1.90
2017-10-25T06:33:32.763Z,1.30
2017-10-25T06:36:00.259Z,1.30
2017-10-25T06:38:27.767Z,1.93
2017-10-25T06:40:55.259Z,2.63
2017-10-25T06:43:22.767Z,1.30
2017-10-25T06:45:50.263Z,1.67
2017-10-25T06:48:17.777Z,1.23
2017-10-25T06:50:45.266Z,1.80
2017-10-25T06:53:12.775Z,1.93
2017-10-25T06:55:41.040Z,0.83
2017-10-25T06:58:08.556Z,2.40
2017-10-25T07:00:36.055Z,2.03
2017-10-25T07:03:03.571Z,0.90
2017-10-25T07:05:31.063Z,1.63
2017-10-25T07:07:58.577Z,1.07
2017-10-25T07:10:26.080Z,1.23
2017-10-25T07:12:53.589Z,2.03
2017-10-25T07:15:21.086Z,1.70
2017-10-25T07:17:48.590Z,1.67
2017-10-25T07:20:16.088Z,2.20
2017-10-25T07:22:43.594Z,2.17
2017-10-25T07:25:11.851Z,1.43
2017-10-25T07:27:39.364Z,1.83
2017-10-25T07:30:06.857Z,2.10
2017-10-25T07:32:34.397Z,1.47
2017-10-25T07:35:01.887Z,1.27
2017-10-25T07:37:30.146Z,1.13
2017-10-25T07:39:57.655Z,1.90
2017-10-25T07:42:25.159Z,1.10
2017-10-25T07:44:52.689Z,8.03
2017-10-25T07:47:20.192Z,0.73
2017-10-25T07:49:47.712Z,7.50
2017-10-25T07:52:17.299Z,1.83
2017-10-25T07:54:44.824Z,1.53
2017-10-25T07:57:13.106Z,1.70
2017-10-25T07:59:41.424Z,1.90
2017-10-25T08:02:09.223Z,2.13
2017-10-25T08:04:36.739Z,1.63
2017-10-25T08:07:04.238Z,1.33
2017-10-25T08:09:31.769Z,2.43
2017-10-25T08:11:59.275Z,0.90
2017-10-25T08:14:27.563Z,7.50
2017-10-25T08:16:55.835Z,2.73
2017-10-25T08:19:24.120Z,1.63
2017-10-25T08:21:51.614Z,3.20
2017-10-25T08:24:19.129Z,3.07
2017-10-25T08:26:47.395Z,2.57
2017-10-25T08:29:15.673Z,2.50
2017-10-25T08:31:43.936Z,1.23
2017-10-25T08:34:11.455Z,1.67
2017-10-25T08:36:38.954Z,5.23
2017-10-25T08:39:06.476Z,5.17
2017-10-25T08:41:33.983Z,3.90
2017-10-25T08:44:01.509Z,2.50
2017-10-25T08:46:29.027Z,2.60
2017-10-25T08:48:56.531Z,2.70
2017-10-25T08:51:24.831Z,1.53
2017-10-25T08:53:53.098Z,3.50
2017-10-25T08:56:21.382Z,1.43
2017-10-25T08:58:49.647Z,1.47
2017-10-25T09:01:17.168Z,2.03
2017-10-25T09:03:44.672Z,3.80
2017-10-25T09:06:12.955Z,1.07
2017-10-25T09:08:41.226Z,1.10
2017-10-25T09:11:09.507Z,2.10
2017-10-25T09:13:37.775Z,1.53
2017-10-25T09:16:06.059Z,1.53
2017-10-25T09:18:34.327Z,1.63
2017-10-25T09:21:02.606Z,2.63
2017-10-25T09:23:30.868Z,1.23
2017-10-25T09:25:58.382Z,1.30
2017-10-25T09:28:25.887Z,1.27
2017-10-25T09:30:54.172Z,2.33
2017-10-25T09:33:22.435Z,2.73
2017-10-25T09:35:49.950Z,1.30
2017-10-25T09:38:17.448Z,0.93
2017-10-25T09:40:44.967Z,1.03
2017-10-25T09:43:12.472Z,2.33
2017-10-25T09:45:40.735Z,3.00
2017-10-25T09:48:08.256Z,5.57
2017-10-25T09:50:35.750Z,1.20
2017-10-25T09:53:03.267Z,0.83
2017-10-25T09:55:30.776Z,1.63
2017-10-25T09:57:58.287Z,2.00
2017-10-25T10:00:25.825Z,1.10
2017-10-25T10:02:53.346Z,1.30
2017-10-25T10:05:20.843Z,0.80
2017-10-25T10:07:48.506Z,0.93
2017-10-25T10:10:16.002Z,1.43
2017-10-25T10:12:43.510Z,2.07
2017-10-25T10:15:11.801Z,2.83
2017-10-25T10:17:39.471Z,4.60
2017-10-25T10:20:06.978Z,0.97
2017-10-25T10:22:35.290Z,0.80
2017-10-25T10:25:02.799Z,1.93
2017-10-25T10:27:30.412Z,1.47
2017-10-25T10:29:57.914Z,1.07
2017-10-25T10:32:25.432Z,1.00
2017-10-25T10:34:52.944Z,0.60
2017-10-25T10:37:20.476Z,0.70
2017-10-25T10:39:48.020Z,1.87
2017-10-25T10:42:15.583Z,1.27
2017-10-25T10:44:43.113Z,1.37
2017-10-25T10:47:10.704Z,0.77
2017-10-25T10:49:38.243Z,0.50
2017-10-25T10:52:05.755Z,0.67
2017-10-25T10:54:33.319Z,1.00
2017-10-25T10:57:00.851Z,0.90
2017-10-25T10:59:29.166Z,0.50
2017-10-25T11:01:57.468Z,0.70
2017-10-25T11:04:25.056Z,0.83
2017-10-25T11:06:52.669Z,0.63
2017-10-25T11:09:21.633Z,0.70
2017-10-25T11:11:49.189Z,0.70
2017-10-25T11:14:16.808Z,0.43
2017-10-25T11:16:44.350Z,0.50
2017-10-25T11:19:12.672Z,0.70
2017-10-25T11:21:40.527Z,0.50
2017-10-25T11:24:08.111Z,1.13
2017-10-25T11:26:35.720Z,0.70
2017-10-25T11:29:04.148Z,0.90
2017-10-25T11:31:32.465Z,1.03
2017-10-25T11:34:00.929Z,0.43
2017-10-25T11:36:30.141Z,5.10
2017-10-25T11:38:58.447Z,1.80
2017-10-25T11:41:26.092Z,0.80
2017-10-25T11:43:53.876Z,0.80
2017-10-25T11:46:23.439Z,1.53
2017-10-25T11:48:53.252Z,1.13
2017-10-25T11:51:21.533Z,0.60
2017-10-25T11:53:49.811Z,1.07
2017-10-25T11:56:18.101Z,1.23
2017-10-25T11:58:45.598Z,1.30
2017-10-25T12:01:13.111Z,2.10
2017-10-25T12:03:40.615Z,1.53
2017-10-25T12:06:08.130Z,1.80
2017-10-25T12:08:35.876Z,0.60
2017-10-25T12:11:04.163Z,1.20
2017-10-25T12:13:32.431Z,0.90
2017-10-25T12:16:00.725Z,1.63
2017-10-25T12:18:28.226Z,0.77
2017-10-25T12:20:55.749Z,1.50
2017-10-25T12:23:23.252Z,1.63
2017-10-25T12:25:50.770Z,1.37
2017-10-25T12:28:18.278Z,0.87
2017-10-25T12:30:45.792Z,3.00
2017-10-25T12:33:13.303Z,1.27
2017-10-25T12:35:40.818Z,1.03
2017-10-25T12:38:08.314Z,1.50
2017-10-25T12:40:35.830Z,0.50
2017-10-25T12:43:03.326Z,1.33
2017-10-25T12:45:30.839Z,0.97
2017-10-25T12:47:58.340Z,0.87
2017-10-25T12:50:25.891Z,3.60
2017-10-25T12:52:53.394Z,1.30
2017-10-25T12:55:20.896Z,0.90
2017-10-25T12:57:48.411Z,2.23
2017-10-25T13:00:15.916Z,0.77
2017-10-25T13:02:43.426Z,0.50
2017-10-25T13:05:11.687Z,2.30
2017-10-25T13:07:39.965Z,1.63
2017-10-25T13:10:09.707Z,0.60
2017-10-25T13:12:37.700Z,0.97
2017-10-25T13:15:05.563Z,0.50
2017-10-25T13:17:37.158Z,0.60
2017-10-25T13:20:05.427Z,1.43
2017-10-25T13:22:32.942Z,1.27
2017-10-25T13:25:00.443Z,4.10
2017-10-25T13:27:27.958Z,5.50
2017-10-25T13:29:55.454Z,1.60
2017-10-25T13:32:22.989Z,2.97
2017-10-25T13:34:50.492Z,0.70
2017-10-25T13:37:18.771Z,1.53
2017-10-25T13:39:47.040Z,8.03
2017-10-25T13:42:15.322Z,1.57
2017-10-25T13:44:43.589Z,3.70
2017-10-25T13:47:11.878Z,0.60
2017-10-25T13:49:40.145Z,0.90
2017-10-25T13:52:08.427Z,0.53
2017-10-25T13:54:36.688Z,3.30
2017-10-25T13:57:04.211Z,0.63
2017-10-25T13:59:31.732Z,1.70
2017-10-25T14:01:59.232Z,1.80
2017-10-25T14:04:26.742Z,2.70
2017-10-25T14:06:54.239Z,2.07
2017-10-25T14:09:21.750Z,3.23
2017-10-25T14:11:50.014Z,3.03
2017-10-25T14:14:18.300Z,1.40
2017-10-25T14:16:46.563Z,1.50
2017-10-25T14:19:14.084Z,1.60
2017-10-25T14:21:41.579Z,2.10
2017-10-25T14:24:09.096Z,1.73
2017-10-25T14:26:48.447Z,1.50
2017-10-25T14:29:15.972Z,1.10
2017-10-25T14:31:43.467Z,1.80
2017-10-25T14:34:11.006Z,1.43
2017-10-25T14:36:38.541Z,1.10
2017-10-25T14:39:06.237Z,1.03
2017-10-25T14:41:33.873Z,2.20
2017-10-25T14:44:01.436Z,2.33
2017-10-25T14:46:28.991Z,3.17
2017-10-25T14:48:56.520Z,2.63
2017-10-25T14:51:24.805Z,0.87
2017-10-25T14:53:53.171Z,1.03
2017-10-25T14:56:21.499Z,1.23
2017-10-25T14:58:49.020Z,1.17
2017-10-25T15:01:17.304Z,1.40
2017-10-25T15:03:44.812Z,1.57
2017-10-25T15:06:12.376Z,3.13
2017-10-25T15:08:39.879Z,4.20
2017-10-25T15:11:07.383Z,0.60
2017-10-25T15:13:34.895Z,0.80
2017-10-25T15:16:02.387Z,1.97
2017-10-25T15:18:29.899Z,2.03
2017-10-25T15:20:58.167Z,1.33
2017-10-25T15:23:26.455Z,1.47
2017-10-25T15:25:53.965Z,14.93
2017-10-25T15:28:21.484Z,1.70
2017-10-25T15:30:49.052Z,5.53
2017-10-25T15:33:16.600Z,2.00
2017-10-25T15:35:44.107Z,1.10
2017-10-25T15:38:11.715Z,0.90
2017-10-25T15:40:39.221Z,1.47
2017-10-25T15:43:06.738Z,1.90
2017-10-25T15:45:34.236Z,2.97
2017-10-25T15:48:01.848Z,2.67
2017-10-25T15:50:29.356Z,1.53
2017-10-25T15:52:56.854Z,3.20
2017-10-25T15:55:25.139Z,3.13
2017-10-25T15:57:52.651Z,0.83
2017-10-25T16:00:20.167Z,2.03
2017-10-25T16:02:47.663Z,2.63
2017-10-25T16:05:15.175Z,3.57
2017-10-25T16:07:42.671Z,1.47
2017-10-25T16:10:10.195Z,1.30
2017-10-25T16:12:37.698Z,1.20
2017-10-25T16:15:05.207Z,0.97
2017-10-25T16:17:32.703Z,2.13
2017-10-25T16:20:00.219Z,3.40
2017-10-25T16:22:27.735Z,1.13
2017-10-25T16:24:55.260Z,2.77
2017-10-25T16:27:22.817Z,6.60
2017-10-25T16:29:50.698Z,3.07
2017-10-25T16:32:18.371Z,1.80
2017-10-25T16:34:46.090Z,1.50
2017-10-25T16:37:14.907Z,5.10
2017-10-25T16:39:42.767Z,1.73
2017-10-25T16:42:10.329Z,2.10
2017-10-25T16:44:37.890Z,7.10
2017-10-25T16:47:05.507Z,13.57
2017-10-25T16:49:33.374Z,13.50
2017-10-25T16:52:01.126Z,6.20
2017-10-25T16:54:29.807Z,11.10
2017-10-25T16:56:59.022Z,7.77
2017-10-25T16:59:29.006Z,2.83
2017-10-25T17:01:56.550Z,2.93
2017-10-25T17:04:24.043Z,1.70
2017-10-25T17:06:52.339Z,1.10
2017-10-25T17:09:19.840Z,1.70
2017-10-25T17:11:47.359Z,0.70
2017-10-25T17:14:14.850Z,2.73
2017-10-25T17:16:42.363Z,1.80
2017-10-25T17:19:10.626Z,1.83
2017-10-25T17:21:38.912Z,1.10
2017-10-25T17:24:07.175Z,0.80
2017-10-25T17:26:34.686Z,7.30
2017-10-25T17:29:02.188Z,2.67
2017-10-25T17:31:29.703Z,1.23
2017-10-25T17:33:57.203Z,4.90
2017-10-25T17:36:24.724Z,1.43
2017-10-25T17:38:52.223Z,1.90
2017-10-25T17:41:20.506Z,2.07
2017-10-25T17:43:48.772Z,6.83
2017-10-25T17:46:16.286Z,1.27
2017-10-25T17:48:43.779Z,2.70
2017-10-25T17:51:11.348Z,1.40
2017-10-25T17:53:38.851Z,2.20
2017-10-25T17:56:06.384Z,1.70
2017-10-25T17:58:34.642Z,1.87
2017-10-25T18:01:02.144Z,0.80
2017-10-25T18:03:29.663Z,1.83
2017-10-25T18:05:57.923Z,1.97
2017-10-25T18:08:25.440Z,4.03
2017-10-25T18:10:52.935Z,2.40
2017-10-25T18:13:20.455Z,1.63
2017-10-25T18:15:47.955Z,2.10
2017-10-25T18:18:15.475Z,2.80
2017-10-25T18:20:42.971Z,2.37
2017-10-25T18:23:10.486Z,1.30
2017-10-25T18:25:37.984Z,4.47
2017-10-25T18:28:05.503Z,4.80
2017-10-25T18:30:33.004Z,2.47
2017-10-25T18:33:00.523Z,5.23
2017-10-25T18:35:28.019Z,6.50
2017-10-25T18:37:55.634Z,8.80
2017-10-25T18:40:23.130Z,13.27
2017-10-25T18:42:50.650Z,11.00
2017-10-25T18:45:18.182Z,12.07
2017-10-25T18:47:46.506Z,11.13
2017-10-25T18:50:14.051Z,9.60
2017-10-25T18:52:41.714Z,8.80
2017-10-25T18:55:09.211Z,5.33
2017-10-25T18:57:36.820Z,5.20
2017-10-25T19:00:04.364Z,8.37
2017-10-25T19:02:31.875Z,4.20
2017-10-25T19:04:59.404Z,5.70
2017-10-25T19:07:26.899Z,5.87
2017-10-25T19:09:54.431Z,5.83
2017-10-25T19:12:21.949Z,9.20
2017-10-25T19:14:49.481Z,12.40
2017-10-25T19:17:17.059Z,4.63
2017-10-25T19:19:45.363Z,3.37
2017-10-25T19:22:12.863Z,8.00
2017-10-25T19:24:40.459Z,3.70
2017-10-25T19:27:08.782Z,4.50
2017-10-25T19:29:36.286Z,4.43
2017-10-25T19:32:03.867Z,5.00
2017-10-25T19:34:31.628Z,6.60
2017-10-25T19:36:59.205Z,4.47
2017-10-25T19:39:26.712Z,5.50
2017-10-25T19:41:54.243Z,8.80
2017-10-25T19:44:21.780Z,9.10
2017-10-25T19:46:49.387Z,10.30
2017-10-25T19:49:16.911Z,9.47
2017-10-25T19:51:44.487Z,7.07
2017-10-25T19:54:11.983Z,9.30
2017-10-25T19:56:40.297Z,7.10
2017-10-25T19:59:07.823Z,4.33
2017-10-25T20:01:36.332Z,8.80
2017-10-25T20:04:04.175Z,5.63
2017-10-25T20:06:32.494Z,4.10
2017-10-25T20:09:00.039Z,3.97
2017-10-25T20:11:27.605Z,2.20
2017-10-25T20:13:55.249Z,3.87
2017-10-25T20:16:22.776Z,2.67
2017-10-25T20:18:51.087Z,2.83
2017-10-25T20:21:18.612Z,2.77
2017-10-25T20:23:46.887Z,2.90
2017-10-25T20:26:15.187Z,3.33
2017-10-25T20:28:42.863Z,3.60
2017-10-25T20:31:10.440Z,2.73
2017-10-25T20:33:37.960Z,4.90
2017-10-25T20:36:05.527Z,3.37
2017-10-25T20:38:33.107Z,2.87
2017-10-25T20:41:01.506Z,2.93
2017-10-25T20:43:29.059Z,4.37
2017-10-25T20:45:56.564Z,4.00
2017-10-25T20:48:24.883Z,3.10
2017-10-25T20:50:52.460Z,3.83
2017-10-25T20:53:20.002Z,7.13
2017-10-25T20:55:47.533Z,5.30
2017-10-25T20:58:15.052Z,3.43
2017-10-25T21:00:43.358Z,7.60
2017-10-25T21:03:11.738Z,6.20
2017-10-25T21:05:39.329Z,4.17
2017-10-25T21:08:07.069Z,7.03
2017-10-25T21:10:34.419Z,4.63
2017-10-25T21:13:01.941Z,4.97
2017-10-25T21:15:29.583Z,5.20
2017-10-25T21:17:57.138Z,5.23
2017-10-25T21:20:25.469Z,5.53
2017-10-25T21:22:53.009Z,6.97
2017-10-25T21:25:20.562Z,7.50
2017-10-25T21:27:48.163Z,4.80
2017-10-25T21:30:15.777Z,6.87
2017-10-25T21:32:44.115Z,3.97
2017-10-25T21:35:11.646Z,4.00
2017-10-25T21:37:39.923Z,4.50
2017-10-25T21:40:08.208Z,6.43
2017-10-25T21:42:35.726Z,4.20
2017-10-25T21:45:03.252Z,6.10
2017-10-25T21:47:30.759Z,3.70
2017-10-25T21:49:59.048Z,8.50
2017-10-25T21:52:27.314Z,7.00
2017-10-25T21:54:55.595Z,5.87
2017-10-25T21:57:23.855Z,4.63
2017-10-25T21:59:51.371Z,6.13
2017-10-25T22:02:18.881Z,5.67
2017-10-25T22:04:47.174Z,4.20
2017-10-25T22:07:15.435Z,5.67
2017-10-25T22:09:43.698Z,5.03
2017-10-25T22:12:11.215Z,5.73
2017-10-25T22:14:38.708Z,6.80
2017-10-25T22:17:06.220Z,7.30
2017-10-25T22:19:33.719Z,5.27
2017-10-25T22:22:01.234Z,5.93
2017-10-25T22:24:28.731Z,6.43
2017-10-25T22:26:56.245Z,7.30
2017-10-25T22:29:23.754Z,8.73
2017-10-25T22:31:51.266Z,5.93
2017-10-25T22:34:18.763Z,4.57
2017-10-25T22:36:46.275Z,6.90
2017-10-25T22:39:13.771Z,7.60
2017-10-25T22:41:41.283Z,4.80
2017-10-25T22:44:08.787Z,4.20
2017-10-25T22:46:36.312Z,5.70
2017-10-25T22:49:03.803Z,7.00
2017-10-25T22:51:31.291Z,8.90
2017-10-25T22:53:59.571Z,6.50
2017-10-25T22:56:27.831Z,6.50
2017-10-25T22:58:55.350Z,12.03
2017-10-25T23:01:22.851Z,8.83
2017-10-25T23:03:50.369Z,8.00
2017-10-25T23:06:17.863Z,6.20
2017-10-25T23:08:45.375Z,10.27
2017-10-25T23:11:12.866Z,9.07
2017-10-25T23:13:40.381Z,8.07
2017-10-25T23:16:07.879Z,7.47
2017-10-25T23:18:35.388Z,5.43
2017-10-25T23:21:02.896Z,7.30
2017-10-25T23:23:30.407Z,7.50
2017-10-25T23:25:57.905Z,8.03
2017-10-25T23:28:25.423Z,7.00
2017-10-25T23:30:52.964Z,5.40
2017-10-25T23:33:21.238Z,3.70
2017-10-25T23:35:49.519Z,4.83
2017-10-25T23:38:17.805Z,4.07
2017-10-25T23:40:45.346Z,3.37
2017-10-25T23:43:12.891Z,4.57
2017-10-25T23:45:40.422Z,5.27
2017-10-25T23:48:07.923Z,8.70
2017-10-25T23:50:36.199Z,5.23
2017-10-25T23:53:04.462Z,5.20
2017-10-25T23:55:31.975Z,6.87
2017-10-25T23:57:59.471Z,3.67
